Time;durP1;ratioP1;P1;durP2;ratioP2;P2;SDS_P1;SDS_P2;PMS_P1;PMS_P2;Temp;Humidity;BMP_temperature;BMP_pressure;BME280_temperature;BME280_humidity;BME280_pressure;Samples;Min_cycle;Max_cycle;Signal;HPM_P1;HPM_P2
2021/10/10 00:01:48;;;;;;;22.50;9.83;;;5.10;96.10;;;;;;4189257;28;20370;-66
2021/10/10 00:03:49;;;;;;;19.07;9.17;;;5.10;96.20;;;;;;4191313;28;20313;-68
2021/10/10 00:05:50;;;;;;;18.00;9.20;;;5.10;96.30;;;;;;4189447;28;20258;-67
2021/10/10 00:07:51;;;;;;;24.60;9.20;;;5.00;96.60;;;;;;4190823;28;20664;-67
2021/10/10 00:09:52;;;;;;;24.27;9.97;;;5.00;96.70;;;;;;4186307;28;20339;-67
2021/10/10 00:11:53;;;;;;;17.20;9.63;;;4.90;96.50;;;;;;4190891;28;20318;-66
2021/10/10 00:13:55;;;;;;;28.17;10.00;;;4.90;96.80;;;;;;4189627;28;20319;-68
2021/10/10 00:15:56;;;;;;;20.87;9.70;;;5.00;96.70;;;;;;4190560;28;20391;-67
2021/10/10 00:17:57;;;;;;;23.90;9.97;;;5.00;96.60;;;;;;4189693;28;20257;-67
2021/10/10 00:19:58;;;;;;;18.10;8.83;;;5.00;96.70;;;;;;4190466;28;21117;-67
2021/10/10 00:21:59;;;;;;;22.50;8.90;;;5.00;96.80;;;;;;4189856;28;20299;-68
2021/10/10 00:24:00;;;;;;;23.97;9.33;;;5.00;96.70;;;;;;4189183;28;20277;-66
2021/10/10 00:26:03;;;;;;;22.90;9.03;;;5.00;96.60;;;;;;4190348;28;20303;-67
2021/10/10 00:28:04;;;;;;;20.10;10.00;;;4.90;96.90;;;;;;4189087;28;20735;-67
2021/10/10 00:30:08;;;;;;;24.87;10.23;;;4.80;97.00;;;;;;4188928;28;20346;-67
2021/10/10 00:32:09;;;;;;;21.00;9.47;;;4.70;97.20;;;;;;4187842;28;20315;-67
2021/10/10 00:34:10;;;;;;;28.53;10.40;;;4.60;97.60;;;;;;4190581;28;20362;-67
2021/10/10 00:36:11;;;;;;;23.63;9.83;;;4.50;97.80;;;;;;4188819;28;20285;-66
2021/10/10 00:38:12;;;;;;;22.63;10.53;;;4.60;97.60;;;;;;4190732;28;20335;-66
2021/10/10 00:40:14;;;;;;;21.73;10.63;;;4.60;97.40;;;;;;4188853;28;20671;-65
2021/10/10 00:42:16;;;;;;;20.80;9.10;;;4.60;97.40;;;;;;4190414;28;20692;-65
2021/10/10 00:44:17;;;;;;;28.73;10.63;;;4.60;97.30;;;;;;4188964;28;20648;-66
2021/10/10 00:46:18;;;;;;;24.90;10.40;;;4.60;97.40;;;;;;4190701;28;20285;-67
2021/10/10 00:48:19;;;;;;;26.27;9.90;;;4.50;97.30;;;;;;4187032;28;20846;-66
2021/10/10 00:50:20;;;;;;;19.40;10.13;;;4.50;97.30;;;;;;4174752;28;20336;-67
2021/10/10 00:52:22;;;;;;;22.87;9.97;;;4.50;97.40;;;;;;4173424;28;20250;-67
2021/10/10 00:54:26;;;;;;;24.67;10.30;;;4.50;97.50;;;;;;4172747;28;20254;-66
2021/10/10 00:56:27;;;;;;;20.13;9.27;;;4.50;97.40;;;;;;4172729;28;20396;-67
2021/10/10 00:58:30;;;;;;;20.90;9.67;;;4.50;97.40;;;;;;4172514;28;20274;-67
2021/10/10 01:00:31;;;;;;;23.13;9.77;;;4.50;97.50;;;;;;4173010;28;20388;-65
2021/10/10 01:02:32;;;;;;;22.37;9.33;;;4.50;97.50;;;;;;4172407;28;20327;-67
2021/10/10 01:04:33;;;;;;;24.77;10.03;;;4.40;97.70;;;;;;4173823;28;20257;-66
2021/10/10 01:06:36;;;;;;;22.83;9.60;;;4.40;97.90;;;;;;4173427;28;20665;-66
2021/10/10 01:08:39;;;;;;;27.07;10.77;;;4.40;97.90;;;;;;4157190;28;20321;-67
2021/10/10 01:10:41;;;;;;;25.83;10.00;;;4.40;98.00;;;;;;4155429;28;20263;-65
2021/10/10 01:12:44;;;;;;;23.17;10.33;;;4.30;98.00;;;;;;4155697;28;20274;-68
2021/10/10 01:14:45;;;;;;;22.97;9.93;;;4.20;98.20;;;;;;4155536;28;20674;-66
2021/10/10 01:16:46;;;;;;;22.93;10.33;;;4.10;98.20;;;;;;4157108;28;20306;-68
2021/10/10 01:18:47;;;;;;;24.30;9.83;;;4.10;98.50;;;;;;4155570;28;20345;-66
2021/10/10 01:20:49;;;;;;;19.67;9.77;;;4.00;98.70;;;;;;4157320;28;20335;-67
2021/10/10 01:22:50;;;;;;;21.43;10.17;;;4.00;98.70;;;;;;4156162;28;20981;-67
2021/10/10 01:24:51;;;;;;;25.70;9.80;;;4.00;98.90;;;;;;4156370;28;21225;-68
2021/10/10 01:26:53;;;;;;;23.47;10.50;;;4.00;98.70;;;;;;4169877;28;20331;-66
2021/10/10 01:28:54;;;;;;;22.90;10.13;;;3.90;98.90;;;;;;4172037;28;21177;-67
2021/10/10 01:30:55;;;;;;;23.03;10.40;;;3.90;98.70;;;;;;4172635;28;20278;-67
2021/10/10 01:32:57;;;;;;;24.23;10.20;;;3.90;98.90;;;;;;4171705;28;20278;-66
2021/10/10 01:34:58;;;;;;;22.43;10.37;;;3.90;99.00;;;;;;4173667;28;20324;-65
2021/10/10 01:36:59;;;;;;;24.40;9.93;;;3.90;99.20;;;;;;4172363;28;20873;-67
2021/10/10 01:39:01;;;;;;;24.67;9.83;;;3.90;99.50;;;;;;4173320;28;20344;-66
2021/10/10 01:41:02;;;;;;;19.53;9.77;;;3.90;99.30;;;;;;4172063;28;20662;-63
2021/10/10 01:43:06;;;;;;;23.77;9.37;;;3.90;99.40;;;;;;4173470;28;20278;-66
2021/10/10 01:45:15;;;;;;;21.87;9.97;;;3.90;99.20;;;;;;4172887;28;20273;-67
2021/10/10 01:47:16;;;;;;;30.00;10.57;;;4.00;99.10;;;;;;4173055;28;20277;-66
2021/10/10 01:49:18;;;;;;;23.33;10.13;;;4.00;99.40;;;;;;4171663;28;20270;-65
2021/10/10 01:51:19;;;;;;;23.70;10.33;;;4.00;99.20;;;;;;4172851;28;20328;-67
2021/10/10 01:53:20;;;;;;;25.73;10.63;;;4.00;99.30;;;;;;4171986;28;20274;-66
2021/10/10 01:55:21;;;;;;;24.40;10.77;;;3.90;99.40;;;;;;4172763;28;20270;-67
2021/10/10 01:57:22;;;;;;;26.20;11.30;;;3.90;99.50;;;;;;4171528;28;20302;-66
2021/10/10 01:59:23;;;;;;;25.67;11.50;;;3.90;99.50;;;;;;4172334;28;20309;-66
2021/10/10 02:01:24;;;;;;;31.17;12.13;;;3.90;99.80;;;;;;4172566;28;20242;-66
2021/10/10 02:03:26;;;;;;;26.97;11.30;;;3.80;99.80;;;;;;4171840;28;20316;-68
2021/10/10 02:05:27;;;;;;;25.00;11.13;;;3.90;99.90;;;;;;4173291;28;20278;-66
2021/10/10 02:07:28;;;;;;;24.27;11.30;;;3.90;99.90;;;;;;4171533;28;20266;-67
2021/10/10 02:09:29;;;;;;;26.47;11.77;;;3.90;99.90;;;;;;4172709;28;20952;-65
2021/10/10 02:11:30;;;;;;;23.97;11.30;;;3.80;99.90;;;;;;4171749;28;20258;-66
2021/10/10 02:13:31;;;;;;;24.73;10.73;;;3.80;99.90;;;;;;4174402;28;21314;-65
2021/10/10 02:15:32;;;;;;;24.67;11.93;;;3.80;99.90;;;;;;4171901;28;20286;-65
2021/10/10 02:17:34;;;;;;;20.13;10.93;;;3.80;99.90;;;;;;4173097;28;20298;-66
2021/10/10 02:19:35;;;;;;;27.67;12.10;;;3.80;99.90;;;;;;4171204;28;20703;-67
2021/10/10 02:21:36;;;;;;;25.90;11.73;;;3.70;99.90;;;;;;4172878;28;20274;-66
2021/10/10 02:23:37;;;;;;;28.30;13.13;;;3.70;99.90;;;;;;4171508;28;20370;-67
2021/10/10 02:25:38;;;;;;;32.80;12.93;;;3.60;99.90;;;;;;4168582;28;20274;-67
2021/10/10 02:27:39;;;;;;;29.30;12.13;;;3.60;99.90;;;;;;4155446;28;20270;-67
2021/10/10 02:29:41;;;;;;;28.90;11.87;;;3.60;99.90;;;;;;4156334;28;20770;-65
2021/10/10 02:31:43;;;;;;;26.43;12.83;;;3.60;99.90;;;;;;4156672;28;20761;-66
2021/10/10 02:33:44;;;;;;;29.83;13.00;;;3.70;99.90;;;;;;4188237;28;20308;-65
2021/10/10 02:35:45;;;;;;;26.57;13.10;;;3.70;99.90;;;;;;4189586;28;20273;-67
2021/10/10 02:37:47;;;;;;;29.87;12.27;;;3.70;99.90;;;;;;4187351;28;20294;-67
2021/10/10 02:39:48;;;;;;;28.73;12.23;;;3.80;99.90;;;;;;4189475;28;20285;-67
2021/10/10 02:41:49;;;;;;;24.47;10.90;;;3.80;99.90;;;;;;4187912;28;20331;-66
2021/10/10 02:43:50;;;;;;;25.67;11.57;;;3.80;99.90;;;;;;4189707;28;20277;-67
2021/10/10 02:45:51;;;;;;;31.57;12.60;;;3.80;99.90;;;;;;4188080;28;20611;-67
2021/10/10 02:47:52;;;;;;;21.50;9.77;;;3.90;99.90;;;;;;4190739;28;20262;-66
2021/10/10 02:49:53;;;;;;;33.50;12.63;;;3.90;99.90;;;;;;4191080;28;20277;-67
2021/10/10 02:51:54;;;;;;;26.20;10.47;;;3.90;99.90;;;;;;4190218;28;20274;-66
2021/10/10 02:53:57;;;;;;;34.13;11.07;;;3.90;99.90;;;;;;4190831;28;20281;-66
2021/10/10 02:55:58;;;;;;;23.07;11.30;;;4.00;99.90;;;;;;4192301;28;20299;-66
2021/10/10 02:57:59;;;;;;;23.60;10.43;;;4.00;99.90;;;;;;4190724;28;20406;-65
2021/10/10 03:00:00;;;;;;;23.03;10.47;;;4.10;99.90;;;;;;4191683;28;20270;-67
2021/10/10 03:02:01;;;;;;;25.10;10.33;;;4.10;99.90;;;;;;4191232;28;20307;-66
2021/10/10 03:04:02;;;;;;;28.97;11.33;;;4.20;99.90;;;;;;4190711;28;20669;-66
2021/10/10 03:06:03;;;;;;;29.10;12.63;;;4.20;99.90;;;;;;4190668;28;20319;-67
2021/10/10 03:08:05;;;;;;;24.13;10.63;;;4.30;99.90;;;;;;4188919;28;20328;-65
2021/10/10 03:10:06;;;;;;;25.37;11.17;;;4.30;99.90;;;;;;4189900;28;20274;-67
2021/10/10 03:12:07;;;;;;;29.87;12.00;;;4.30;99.90;;;;;;4190415;28;20257;-67
2021/10/10 03:14:09;;;;;;;25.77;11.07;;;4.20;99.90;;;;;;4191951;28;20331;-66
2021/10/10 03:16:10;;;;;;;30.37;12.10;;;4.20;99.90;;;;;;4190412;28;20277;-66
2021/10/10 03:18:11;;;;;;;32.20;11.90;;;4.10;99.90;;;;;;4191491;28;20288;-67
2021/10/10 03:20:12;;;;;;;23.87;11.30;;;4.10;99.90;;;;;;4190297;28;20327;-66
2021/10/10 03:22:13;;;;;;;28.00;12.37;;;4.00;99.90;;;;;;4191587;28;20281;-66
2021/10/10 03:24:14;;;;;;;27.63;11.93;;;4.00;99.90;;;;;;4190587;28;20349;-66
2021/10/10 03:26:15;;;;;;;28.87;11.50;;;4.00;99.90;;;;;;4191754;28;20611;-66
2021/10/10 03:28:17;;;;;;;28.33;10.93;;;4.00;99.90;;;;;;4190454;28;20277;-66
2021/10/10 03:30:18;;;;;;;26.13;10.90;;;4.00;99.90;;;;;;4189470;28;20265;-67
2021/10/10 03:32:19;;;;;;;19.63;9.73;;;4.00;99.90;;;;;;4189794;28;21384;-66
2021/10/10 03:34:20;;;;;;;21.30;10.63;;;4.00;99.90;;;;;;4190236;28;20277;-67
2021/10/10 03:36:21;;;;;;;22.20;9.73;;;3.90;99.90;;;;;;4190725;28;20262;-66
2021/10/10 03:38:23;;;;;;;21.20;10.63;;;3.90;99.90;;;;;;4188977;28;20413;-65
2021/10/10 03:40:24;;;;;;;22.57;10.17;;;3.90;99.90;;;;;;4191114;28;20277;-66
2021/10/10 03:42:25;;;;;;;24.60;9.90;;;3.80;99.90;;;;;;4189710;28;20753;-65
2021/10/10 03:44:26;;;;;;;23.77;10.63;;;3.80;99.90;;;;;;4191172;28;20327;-67
2021/10/10 03:46:27;;;;;;;27.17;10.27;;;3.80;99.90;;;;;;4189647;28;20327;-66
2021/10/10 03:48:28;;;;;;;27.37;10.77;;;3.70;99.90;;;;;;4189702;28;20285;-67
2021/10/10 03:50:29;;;;;;;23.50;10.50;;;3.70;99.90;;;;;;4190066;28;20691;-66
2021/10/10 03:52:30;;;;;;;24.93;10.07;;;3.70;99.90;;;;;;4191403;28;20270;-66
2021/10/10 03:56:53;;;;;;;27.10;11.23;;;3.70;99.90;;;;;;4190749;28;20340;-66
2021/10/10 03:58:54;;;;;;;22.07;10.57;;;3.70;99.90;;;;;;4188565;28;20821;-65
2021/10/10 04:00:55;;;;;;;24.77;11.40;;;3.70;99.90;;;;;;4189417;28;20273;-65
2021/10/10 04:02:59;;;;;;;29.80;10.37;;;3.80;99.90;;;;;;4189179;28;20355;-65
2021/10/10 04:05:02;;;;;;;26.83;10.63;;;3.80;99.90;;;;;;4190806;28;20262;-66
2021/10/10 04:07:03;;;;;;;25.90;11.77;;;3.80;99.90;;;;;;4187758;28;20684;-66
2021/10/10 04:09:06;;;;;;;30.00;11.23;;;3.80;99.90;;;;;;4190114;28;20269;-65
2021/10/10 04:11:07;;;;;;;23.03;11.07;;;3.80;99.90;;;;;;4190287;28;20253;-65
2021/10/10 04:13:08;;;;;;;26.13;10.33;;;3.80;99.90;;;;;;4189477;28;20273;-66
2021/10/10 04:15:09;;;;;;;22.90;10.30;;;3.80;99.90;;;;;;4191005;28;20250;-65
2021/10/10 04:17:11;;;;;;;27.07;11.50;;;3.80;99.90;;;;;;4188986;28;20301;-65
2021/10/10 04:19:12;;;;;;;31.23;10.77;;;3.80;99.90;;;;;;4190765;28;20277;-64
2021/10/10 04:21:13;;;;;;;25.10;11.27;;;3.80;99.90;;;;;;4189116;28;20265;-65
2021/10/10 04:23:14;;;;;;;29.50;10.40;;;3.80;99.90;;;;;;4191379;28;20323;-65
2021/10/10 04:25:15;;;;;;;23.07;10.90;;;3.80;99.90;;;;;;4187650;28;20755;-64
2021/10/10 04:27:16;;;;;;;26.70;11.40;;;3.70;99.90;;;;;;4190280;28;20265;-66
2021/10/10 04:29:18;;;;;;;25.70;10.67;;;3.60;99.90;;;;;;4189171;28;20770;-66
2021/10/10 04:31:19;;;;;;;22.53;10.53;;;3.60;99.90;;;;;;4190552;28;20269;-66
2021/10/10 04:33:20;;;;;;;24.13;10.60;;;3.60;99.90;;;;;;4189180;28;20814;-65
2021/10/10 04:35:21;;;;;;;27.40;10.30;;;3.60;99.90;;;;;;4190629;28;21323;-66
2021/10/10 04:37:22;;;;;;;23.73;11.10;;;3.60;99.90;;;;;;4189040;28;20370;-66
2021/10/10 04:39:23;;;;;;;32.07;10.70;;;3.50;99.90;;;;;;4189585;28;20265;-65
2021/10/10 04:41:25;;;;;;;26.10;10.47;;;3.50;99.90;;;;;;4189505;28;20315;-66
2021/10/10 04:43:26;;;;;;;22.27;10.40;;;3.50;99.90;;;;;;4187331;28;20323;-65
2021/10/10 04:45:27;;;;;;;25.43;11.63;;;3.40;99.90;;;;;;4190130;28;20734;-65
2021/10/10 04:47:28;;;;;;;23.47;12.13;;;3.40;99.90;;;;;;4188880;28;20253;-66
2021/10/10 04:49:30;;;;;;;28.97;10.83;;;3.40;99.90;;;;;;4189817;28;20656;-65
2021/10/10 04:51:31;;;;;;;25.07;11.13;;;3.40;99.90;;;;;;4188827;28;20691;-65
2021/10/10 04:53:32;;;;;;;26.27;11.70;;;3.40;99.90;;;;;;4190607;28;20306;-66
2021/10/10 04:55:33;;;;;;;22.40;10.60;;;3.40;99.90;;;;;;4188513;28;20734;-66
2021/10/10 04:57:35;;;;;;;21.93;9.63;;;3.50;99.90;;;;;;4190098;28;20297;-66
2021/10/10 04:59:36;;;;;;;24.67;10.10;;;3.50;99.90;;;;;;4189118;28;20262;-66
2021/10/10 05:01:37;;;;;;;30.00;11.40;;;3.50;99.90;;;;;;4189938;28;20323;-66
2021/10/10 05:03:38;;;;;;;18.57;9.77;;;3.50;99.90;;;;;;4187500;28;20296;-65
2021/10/10 05:05:42;;;;;;;21.80;9.93;;;3.60;99.90;;;;;;4189785;28;20273;-66
2021/10/10 05:07:43;;;;;;;28.30;11.63;;;3.60;99.90;;;;;;4187257;28;20319;-66
2021/10/10 05:09:44;;;;;;;29.57;11.07;;;3.60;99.90;;;;;;4189384;28;20281;-65
2021/10/10 05:11:45;;;;;;;23.07;10.90;;;3.70;99.90;;;;;;4188048;28;20285;-67
2021/10/10 05:13:46;;;;;;;23.83;10.30;;;3.70;99.90;;;;;;4186962;28;20414;-65
2021/10/10 05:15:47;;;;;;;29.40;11.17;;;3.70;99.90;;;;;;4189429;28;20326;-65
2021/10/10 05:17:48;;;;;;;24.53;10.37;;;3.70;99.90;;;;;;4188408;28;20653;-66
2021/10/10 05:19:50;;;;;;;26.43;11.50;;;3.70;99.90;;;;;;4189917;28;20394;-66
2021/10/10 05:21:51;;;;;;;25.33;10.33;;;3.60;99.90;;;;;;4188266;28;20599;-65
2021/10/10 05:23:52;;;;;;;24.67;11.67;;;3.50;99.90;;;;;;4189726;28;20277;-64
2021/10/10 05:25:53;;;;;;;25.83;11.67;;;3.50;99.90;;;;;;4188301;28;20308;-65
2021/10/10 05:27:55;;;;;;;24.73;10.67;;;3.50;99.90;;;;;;4189617;28;20273;-64
2021/10/10 05:29:56;;;;;;;19.33;10.33;;;3.60;99.90;;;;;;4188283;28;20269;-66
2021/10/10 05:31:57;;;;;;;23.10;10.23;;;3.60;99.90;;;;;;4186257;28;20684;-65
2021/10/10 05:33:59;;;;;;;30.53;11.23;;;3.60;99.90;;;;;;4171174;28;20681;-66
2021/10/10 05:36:01;;;;;;;26.57;11.77;;;3.70;99.90;;;;;;4172165;28;20282;-65
2021/10/10 05:38:02;;;;;;;23.70;11.87;;;3.80;99.90;;;;;;4171427;28;20297;-65
2021/10/10 05:40:03;;;;;;;25.03;11.10;;;3.80;99.90;;;;;;4172535;28;20265;-65
2021/10/10 05:42:04;;;;;;;24.17;10.97;;;3.90;99.90;;;;;;4172030;28;20258;-66
2021/10/10 05:44:06;;;;;;;24.30;11.57;;;3.90;99.90;;;;;;4171939;28;20332;-66
2021/10/10 05:46:07;;;;;;;28.40;12.07;;;3.90;99.90;;;;;;4172181;28;20316;-66
2021/10/10 05:48:08;;;;;;;23.57;11.40;;;4.00;99.90;;;;;;4186534;28;20592;-67
2021/10/10 05:50:09;;;;;;;39.17;13.17;;;4.00;99.90;;;;;;4189127;28;20265;-67
2021/10/10 05:52:10;;;;;;;28.90;11.67;;;4.00;99.90;;;;;;4176388;28;20286;-67
2021/10/10 05:54:14;;;;;;;24.53;10.80;;;4.00;99.90;;;;;;4173101;28;20751;-67
2021/10/10 05:56:17;;;;;;;25.70;10.47;;;4.10;99.90;;;;;;4171654;28;20282;-66
2021/10/10 05:58:20;;;;;;;31.23;13.13;;;4.10;99.90;;;;;;4174052;28;20391;-66
2021/10/10 06:00:21;;;;;;;33.07;12.90;;;4.10;99.90;;;;;;4170823;28;20278;-66
2021/10/10 06:02:22;;;;;;;25.00;12.60;;;4.10;99.90;;;;;;4172553;28;20273;-67
2021/10/10 06:04:23;;;;;;;29.60;12.60;;;4.10;99.90;;;;;;4171199;28;20294;-66
2021/10/10 06:06:24;;;;;;;27.37;13.57;;;4.20;99.90;;;;;;4172667;28;20282;-65
2021/10/10 06:08:25;;;;;;;36.40;13.13;;;4.20;99.90;;;;;;4171357;28;20270;-66
2021/10/10 06:10:28;;;;;;;32.10;13.20;;;4.20;99.90;;;;;;4172470;28;20288;-64
2021/10/10 06:12:30;;;;;;;25.47;11.73;;;4.30;99.90;;;;;;4171734;28;20303;-67
2021/10/10 06:14:33;;;;;;;33.47;13.50;;;4.30;99.90;;;;;;4171867;28;20308;-67
2021/10/10 06:16:34;;;;;;;29.57;12.70;;;4.30;99.90;;;;;;4171832;28;20278;-65
2021/10/10 06:18:36;;;;;;;28.73;11.33;;;4.50;99.90;;;;;;4171946;28;20297;-65
2021/10/10 06:20:37;;;;;;;32.00;12.70;;;4.60;99.90;;;;;;4172468;28;20270;-65
2021/10/10 06:22:38;;;;;;;25.70;12.13;;;4.70;99.90;;;;;;4172398;28;20281;-66
2021/10/10 06:24:39;;;;;;;21.20;10.53;;;4.80;99.90;;;;;;4175823;28;20749;-66
2021/10/10 06:26:41;;;;;;;24.07;11.47;;;4.80;99.90;;;;;;4174131;28;20339;-65
2021/10/10 06:28:42;;;;;;;24.20;10.87;;;4.90;99.90;;;;;;4186485;28;20258;-66
2021/10/10 06:30:43;;;;;;;22.03;10.37;;;4.90;99.90;;;;;;4174291;28;20254;-65
2021/10/10 06:32:44;;;;;;;25.87;11.50;;;5.00;99.90;;;;;;4175914;28;20258;-66
2021/10/10 06:34:46;;;;;;;28.43;11.83;;;5.00;99.90;;;;;;4174529;28;21080;-65
2021/10/10 06:36:47;;;;;;;26.53;11.70;;;5.10;99.90;;;;;;4174920;28;20669;-66
2021/10/10 06:38:50;;;;;;;26.33;12.20;;;5.00;99.90;;;;;;4174615;28;20346;-65
2021/10/10 06:40:51;;;;;;;26.60;12.07;;;5.10;99.90;;;;;;4175241;28;20312;-66
2021/10/10 06:42:52;;;;;;;24.70;12.10;;;5.20;99.90;;;;;;4174414;28;20326;-65
2021/10/10 06:44:53;;;;;;;31.00;13.60;;;5.20;99.90;;;;;;4174868;28;20327;-64
2021/10/10 06:46:54;;;;;;;24.17;11.10;;;5.30;99.90;;;;;;4176021;28;20328;-66
2021/10/10 06:48:56;;;;;;;23.20;10.20;;;5.40;99.90;;;;;;4174287;28;20308;-66
2021/10/10 06:50:57;;;;;;;21.07;11.07;;;5.40;99.90;;;;;;4175094;28;20819;-65
2021/10/10 06:52:58;;;;;;;25.87;11.03;;;5.50;99.90;;;;;;4173965;28;20316;-66
2021/10/10 06:54:59;;;;;;;28.50;11.27;;;5.50;99.90;;;;;;4173874;28;20278;-67
2021/10/10 06:57:00;;;;;;;24.87;10.70;;;5.60;99.90;;;;;;4174731;28;20286;-66
2021/10/10 06:59:03;;;;;;;23.43;10.37;;;5.70;99.90;;;;;;4174820;28;20297;-66
2021/10/10 07:01:04;;;;;;;24.70;11.67;;;5.70;99.90;;;;;;4173838;28;20262;-66
2021/10/10 07:03:05;;;;;;;24.13;10.77;;;5.80;99.90;;;;;;4175321;28;20270;-64
2021/10/10 07:05:06;;;;;;;28.80;11.03;;;5.80;99.90;;;;;;4172958;28;20882;-64
2021/10/10 07:07:07;;;;;;;23.20;10.23;;;5.90;99.90;;;;;;4176062;28;20351;-65
2021/10/10 07:09:11;;;;;;;24.67;10.43;;;5.90;99.90;;;;;;4174229;28;20270;-64
2021/10/10 07:11:12;;;;;;;21.53;10.53;;;5.90;99.90;;;;;;4174832;28;20654;-66
2021/10/10 07:13:13;;;;;;;22.53;10.37;;;5.90;99.90;;;;;;4173635;28;20304;-65
2021/10/10 07:15:15;;;;;;;24.03;10.47;;;5.90;99.90;;;;;;4174044;28;21037;-66
2021/10/10 07:17:17;;;;;;;30.93;10.77;;;6.00;99.90;;;;;;4174872;28;20356;-65
2021/10/10 07:19:23;;;;;;;28.83;10.70;;;6.10;99.90;;;;;;4173884;28;20297;-64
2021/10/10 07:25:34;;;;;;;24.40;11.40;;;6.60;99.90;;;;;;4175829;28;20323;-63
2021/10/10 07:27:39;;;;;;;28.73;12.70;;;6.80;99.90;;;;;;4173617;28;20262;-64
2021/10/10 07:29:40;;;;;;;30.67;12.80;;;6.90;99.90;;;;;;4174580;28;20332;-65
2021/10/10 07:31:41;;;;;;;26.10;10.37;;;7.10;99.90;;;;;;4173255;28;20665;-65
2021/10/10 07:33:43;;;;;;;21.50;10.20;;;7.20;99.80;;;;;;4174532;28;20346;-63
2021/10/10 07:35:44;;;;;;;22.73;9.37;;;7.40;99.60;;;;;;4173719;28;20386;-62
2021/10/10 07:37:46;;;;;;;26.80;11.03;;;7.70;99.20;;;;;;4174328;28;20270;-64
2021/10/10 07:39:47;;;;;;;24.37;10.23;;;7.80;99.00;;;;;;4173097;28;20079;-64
2021/10/10 07:41:49;;;;;;;41.80;17.53;;;7.90;98.70;;;;;;4174936;28;20055;-62
2021/10/10 07:43:50;;;;;;;21.03;9.37;;;8.00;98.60;;;;;;4189735;28;20017;-63
2021/10/10 07:45:52;;;;;;;19.00;9.83;;;8.20;98.20;;;;;;4190979;28;20509;-63
2021/10/10 07:48:02;;;;;;;28.17;8.87;;;8.50;98.10;;;;;;4189985;28;20075;-63
2021/10/10 07:50:04;;;;;;;20.75;9.57;;;8.90;97.60;;;;;;4190856;28;20044;-62
2021/10/10 07:52:05;;;;;;;21.13;8.43;;;9.20;97.30;;;;;;4187849;28;20048;-64
2021/10/10 07:54:06;;;;;;;19.67;9.00;;;9.40;96.90;;;;;;4190203;28;20098;-64
2021/10/10 07:56:07;;;;;;;22.83;8.67;;;9.40;96.60;;;;;;4190167;28;20036;-64
2021/10/10 07:58:08;;;;;;;21.43;9.00;;;9.40;96.40;;;;;;4188849;28;20044;-62
2021/10/10 08:00:11;;;;;;;24.67;9.40;;;9.50;96.50;;;;;;4190254;28;20098;-64
2021/10/10 08:02:12;;;;;;;15.90;8.87;;;9.60;96.40;;;;;;4188155;28;20404;-64
2021/10/10 08:04:13;;;;;;;20.93;9.17;;;9.60;96.00;;;;;;4189619;28;20093;-64
2021/10/10 08:06:14;;;;;;;21.43;8.83;;;9.70;95.80;;;;;;4188486;28;20036;-63
2021/10/10 08:08:15;;;;;;;23.07;8.97;;;9.70;95.40;;;;;;4188946;28;20075;-62
2021/10/10 08:10:17;;;;;;;16.23;8.43;;;9.80;95.30;;;;;;4187372;28;20037;-63
2021/10/10 08:12:18;;;;;;;16.40;8.20;;;9.90;94.80;;;;;;4188801;28;20082;-63
2021/10/10 08:14:19;;;;;;;20.00;8.20;;;9.80;94.50;;;;;;4188800;28;20527;-63
2021/10/10 08:16:20;;;;;;;16.90;8.50;;;10.10;94.40;;;;;;4189930;28;20052;-63
2021/10/10 08:18:21;;;;;;;22.20;8.20;;;10.20;94.40;;;;;;4188808;28;20733;-63
2021/10/10 08:20:22;;;;;;;21.03;7.50;;;10.30;94.10;;;;;;4190391;28;20097;-66
2021/10/10 08:22:24;;;;;;;15.23;4.23;;;10.40;93.80;;;;;;4183089;28;20045;-65
2021/10/10 08:24:28;;;;;;;11.20;4.63;;;10.60;91.80;;;;;;4173383;28;20040;-65
2021/10/10 08:26:31;;;;;;;11.47;4.73;;;10.90;90.50;;;;;;4172542;28;20493;-64
2021/10/10 08:28:32;;;;;;;10.67;4.13;;;11.30;90.50;;;;;;4172465;28;20507;-65
2021/10/10 08:30:33;;;;;;;9.03;3.50;;;11.60;89.00;;;;;;4173595;28;20053;-65
2021/10/10 08:32:36;;;;;;;9.83;3.73;;;11.70;87.70;;;;;;4173303;28;20040;-64
2021/10/10 08:34:38;;;;;;;10.00;4.00;;;11.70;85.90;;;;;;4183561;28;20083;-65
2021/10/10 08:36:39;;;;;;;5.67;3.10;;;11.80;84.90;;;;;;4187441;28;20504;-66
2021/10/10 08:38:41;;;;;;;11.33;4.63;;;11.80;84.60;;;;;;4189500;28;20090;-68
2021/10/10 08:40:43;;;;;;;9.07;3.40;;;11.80;83.50;;;;;;4188239;28;20498;-66
2021/10/10 08:42:47;;;;;;;11.83;4.23;;;11.90;82.20;;;;;;4189653;28;20032;-66
2021/10/10 08:44:52;;;;;;;7.87;3.80;;;12.00;82.40;;;;;;4187958;28;20094;-67
2021/10/10 08:47:01;;;;;;;8.27;3.60;;;12.00;82.40;;;;;;4189539;28;20646;-66
2021/10/10 08:49:03;;;;;;;6.77;3.27;;;12.00;82.30;;;;;;4187634;28;20853;-67
2021/10/10 08:51:04;;;;;;;8.83;3.70;;;11.80;81.80;;;;;;4189502;28;20452;-66
2021/10/10 08:53:06;;;;;;;11.23;3.70;;;11.90;82.00;;;;;;4187815;28;20078;-68
2021/10/10 08:55:08;;;;;;;11.57;3.60;;;12.00;81.60;;;;;;4189549;28;20028;-66
2021/10/10 08:57:09;;;;;;;11.37;3.17;;;12.10;81.60;;;;;;4187975;28;20048;-66
2021/10/10 08:59:11;;;;;;;7.63;2.80;;;12.00;80.40;;;;;;4189287;28;20056;-66
2021/10/10 09:01:16;;;;;;;13.70;4.10;;;12.30;79.00;;;;;;4188735;28;20040;-66
2021/10/10 09:03:18;;;;;;;9.20;2.87;;;12.30;77.50;;;;;;4188813;28;20102;-67
2021/10/10 09:05:19;;;;;;;7.70;2.83;;;12.30;76.80;;;;;;4189082;28;20053;-66
2021/10/10 09:07:20;;;;;;;9.53;3.57;;;12.20;77.10;;;;;;4188188;28;20037;-69
2021/10/10 09:09:28;;;;;;;11.43;2.47;;;12.30;77.60;;;;;;4188639;28;20469;-66
2021/10/10 09:11:43;;;;;;;10.77;2.90;;;12.40;76.10;;;;;;4188074;28;20470;-66
2021/10/10 09:13:44;;;;;;;8.93;2.67;;;12.40;76.70;;;;;;4188408;28;20133;-67
2021/10/10 09:15:49;;;;;;;5.63;3.00;;;12.30;77.30;;;;;;4187906;28;20853;-66
2021/10/10 09:17:55;;;;;;;8.60;3.00;;;12.30;77.10;;;;;;4188558;28;20033;-66
2021/10/10 09:20:01;;;;;;;9.23;2.80;;;12.30;76.40;;;;;;4187756;28;20412;-67
2021/10/10 09:22:06;;;;;;;9.00;2.50;;;12.30;76.40;;;;;;4189263;28;20040;-66
2021/10/10 09:24:07;;;;;;;8.20;2.90;;;12.30;76.70;;;;;;4186880;28;20048;-66
2021/10/10 09:26:08;;;;;;;8.70;2.90;;;12.50;76.70;;;;;;4189507;28;20091;-67
2021/10/10 09:28:21;;;;;;;14.23;2.60;;;12.60;76.10;;;;;;4187793;28;20106;-64
2021/10/10 09:30:24;;;;;;;8.13;3.10;;;12.50;75.30;;;;;;4189064;28;20385;-66
2021/10/10 09:32:26;;;;;;;5.70;3.10;;;12.60;73.90;;;;;;4187026;28;20078;-66
2021/10/10 09:34:27;;;;;;;9.07;3.27;;;12.50;74.60;;;;;;4189045;28;20048;-66
2021/10/10 09:36:29;;;;;;;6.07;3.10;;;12.40;75.20;;;;;;4187354;28;20427;-66
2021/10/10 09:38:39;;;;;;;8.43;2.60;;;12.20;74.80;;;;;;4189302;28;20114;-65
2021/10/10 09:40:47;;;;;;;10.68;2.88;;;12.10;75.00;;;;;;4187278;28;20070;-66
2021/10/10 09:42:51;;;;;;;11.63;2.97;;;12.00;75.40;;;;;;4188144;28;20028;-66
2021/10/10 09:44:53;;;;;;;10.47;3.43;;;12.00;75.60;;;;;;4187570;28;20028;-66
2021/10/10 09:46:59;;;;;;;12.67;3.20;;;12.00;75.30;;;;;;4188791;28;20090;-66
2021/10/10 09:49:18;;;;;;;6.30;2.50;;;12.10;75.80;;;;;;4187614;28;20477;-65
2021/10/10 09:51:35;;;;;;;4.80;2.43;;;12.20;76.40;;;;;;4188696;28;20759;-69
2021/10/10 09:53:36;;;;;;;5.53;2.80;;;12.40;75.50;;;;;;4187930;28;20600;-65
2021/10/10 09:55:54;;;;;;;4.90;1.90;;;12.50;76.00;;;;;;4188503;28;20090;-66
2021/10/10 09:57:55;;;;;;;4.30;2.87;;;12.40;74.90;;;;;;4189042;28;20110;-65
2021/10/10 09:59:56;;;;;;;6.07;2.60;;;12.40;75.30;;;;;;4192132;28;20105;-66
2021/10/10 10:01:57;;;;;;;7.87;2.47;;;12.40;75.20;;;;;;4191103;28;20028;-67
2021/10/10 10:04:04;;;;;;;8.90;2.77;;;12.40;75.00;;;;;;4191622;28;20040;-65
2021/10/10 10:06:06;;;;;;;10.80;4.97;;;12.30;74.10;;;;;;4191062;28;20549;-66
2021/10/10 10:08:07;;;;;;;7.27;2.73;;;12.30;74.70;;;;;;4190725;28;20871;-65
2021/10/10 10:10:08;;;;;;;7.23;2.07;;;12.40;74.90;;;;;;4191383;28;20021;-66
2021/10/10 10:12:09;;;;;;;6.63;2.73;;;12.50;75.10;;;;;;4190917;28;20130;-66
2021/10/10 10:14:16;;;;;;;9.27;2.93;;;12.70;75.50;;;;;;4191956;28;20513;-67
2021/10/10 10:16:18;;;;;;;6.30;3.17;;;12.80;74.90;;;;;;4191085;28;20059;-66
2021/10/10 10:18:19;;;;;;;5.83;2.60;;;12.90;75.50;;;;;;4192231;28;20086;-67
2021/10/10 10:20:21;;;;;;;10.17;3.27;;;12.90;74.80;;;;;;4190970;28;20032;-67
2021/10/10 10:22:23;;;;;;;8.83;2.90;;;12.80;74.00;;;;;;4191717;28;20036;-67
2021/10/10 10:24:27;;;;;;;8.20;3.70;;;12.70;74.20;;;;;;4191225;28;20102;-67
2021/10/10 10:26:34;;;;;;;8.00;3.37;;;12.70;74.70;;;;;;4191890;28;20429;-67
2021/10/10 10:28:36;;;;;;;14.10;3.40;;;12.70;75.00;;;;;;4189871;28;20106;-66
2021/10/10 10:30:37;;;;;;;6.07;3.30;;;12.90;74.90;;;;;;4191580;28;20117;-64
2021/10/10 10:32:39;;;;;;;7.20;2.70;;;12.80;74.60;;;;;;4190269;28;20059;-63
2021/10/10 10:35:07;;;;;;;5.77;2.40;;;12.90;74.50;;;;;;4191167;28;20033;-63
2021/10/10 10:37:10;;;;;;;9.83;3.73;;;13.00;74.60;;;;;;4190129;28;20037;-62